createdAt,value
2023-04-10T00:04:46.232Z,56.94
2023-04-10T00:07:25.234Z,56.83
2023-04-10T00:10:04.916Z,56.75
2023-04-10T00:12:43.146Z,56.56
2023-04-10T00:15:16.686Z,56.43
2023-04-10T00:17:50.811Z,56.61
2023-04-10T00:20:29.779Z,56.55
2023-04-10T00:23:09.124Z,56.62
2023-04-10T00:25:45.090Z,56.62
2023-04-10T00:28:16.782Z,56.71
2023-04-10T00:30:58.847Z,56.88
2023-04-10T00:33:35.326Z,56.58
2023-04-10T00:36:08.886Z,56.63
2023-04-10T00:38:39.305Z,56.95
2023-04-10T00:41:12.942Z,57.03
2023-04-10T00:43:43.326Z,57.36
2023-04-10T00:46:17.731Z,57.61
2023-04-10T00:48:56.471Z,57.64
2023-04-10T00:51:35.829Z,57.47
2023-04-10T00:54:06.824Z,57.43
2023-04-10T00:56:38.310Z,57.47
2023-04-10T00:59:08.514Z,57.68
2023-04-10T01:01:45.043Z,57.72
2023-04-10T01:04:19.225Z,57.44
2023-04-10T01:06:57.950Z,57.73
2023-04-10T01:09:39.755Z,57.91
2023-04-10T01:12:19.899Z,58.04
2023-04-10T01:15:01.144Z,58.65
2023-04-10T01:17:46.620Z,58.76
2023-04-10T01:20:22.185Z,58.72
2023-04-10T01:23:33.149Z,58.36
2023-04-10T01:26:07.878Z,58.51
2023-04-10T01:28:54.632Z,58.78
2023-04-10T01:31:33.870Z,58.56
2023-04-10T01:34:13.988Z,58.27
2023-04-10T01:36:51.835Z,58.11
2023-04-10T01:39:23.364Z,57.76
2023-04-10T01:41:56.477Z,57.83
2023-04-10T01:44:46.085Z,57.77
2023-04-10T01:47:20.071Z,57.70
2023-04-10T01:49:54.417Z,57.28
2023-04-10T01:52:29.403Z,57.14
2023-04-10T01:55:14.122Z,57.20
2023-04-10T01:57:53.729Z,57.03
2023-04-10T02:00:31.132Z,57.33
2023-04-10T02:03:01.446Z,57.35
2023-04-10T02:05:41.766Z,57.22
2023-04-10T02:08:18.524Z,57.30
2023-04-10T02:10:57.374Z,57.42
2023-04-10T02:13:30.712Z,57.31
2023-04-10T02:16:05.310Z,57.32
2023-04-10T02:18:37.996Z,57.19
2023-04-10T02:21:09.726Z,57.25
2023-04-10T02:23:40.545Z,57.32
2023-04-10T02:26:11.631Z,57.23
2023-04-10T02:28:44.228Z,57.14
2023-04-10T02:31:17.063Z,57.30
2023-04-10T02:33:47.588Z,57.07
2023-04-10T02:36:17.764Z,57.22
2023-04-10T02:38:47.791Z,57.15
2023-04-10T02:41:18.158Z,56.89
2023-04-10T02:43:48.212Z,56.92
2023-04-10T02:46:21.993Z,56.98
2023-04-10T02:48:52.533Z,56.97
2023-04-10T02:51:22.773Z,57.25
2023-04-10T02:53:53.701Z,57.31
2023-04-10T02:56:31.148Z,57.08
2023-04-10T02:59:01.750Z,57.01
2023-04-10T03:01:36.396Z,57.05
2023-04-10T03:04:06.799Z,56.98
2023-04-10T03:06:41.677Z,56.96
2023-04-10T03:09:12.181Z,57.51
2023-04-10T03:11:42.304Z,57.90
2023-04-10T03:14:12.626Z,58.12
2023-04-10T03:16:45.503Z,57.89
2023-04-10T03:19:15.558Z,57.70
2023-04-10T03:21:45.766Z,57.23
2023-04-10T03:24:16.590Z,57.01
2023-04-10T03:26:46.881Z,57.11
2023-04-10T03:29:19.212Z,57.43
2023-04-10T03:31:52.121Z,57.36
2023-04-10T03:34:22.565Z,57.29
2023-04-10T03:37:00.450Z,57.29
2023-04-10T03:39:30.618Z,57.53
2023-04-10T03:42:00.831Z,57.47
2023-04-10T03:44:30.955Z,57.67
2023-04-10T03:47:03.962Z,57.25
2023-04-10T03:49:34.651Z,57.43
2023-04-10T03:52:09.811Z,57.64
2023-04-10T03:54:40.139Z,58.04
2023-04-10T03:57:11.765Z,57.46
2023-04-10T03:59:41.838Z,57.48
2023-04-10T04:02:18.363Z,57.35
2023-04-10T04:04:51.540Z,57.30
2023-04-10T04:07:24.722Z,57.27
2023-04-10T04:10:15.182Z,57.07
2023-04-10T04:13:17.324Z,57.10
2023-04-10T04:16:16.507Z,57.08
2023-04-10T04:18:57.984Z,57.31
2023-04-10T04:21:41.279Z,57.08
2023-04-10T04:24:22.226Z,57.00
2023-04-10T04:26:58.115Z,57.00
2023-04-10T04:29:40.883Z,57.32
2023-04-10T04:32:20.266Z,57.52
2023-04-10T04:35:11.008Z,57.54
2023-04-10T04:38:20.368Z,57.21
2023-04-10T04:41:18.752Z,57.54
2023-04-10T04:44:11.477Z,57.25
2023-04-10T04:47:07.890Z,57.30
2023-04-10T04:49:47.986Z,57.96
2023-04-10T04:52:52.926Z,57.97
2023-04-10T04:55:44.776Z,57.73
2023-04-10T04:58:50.248Z,57.19
2023-04-10T05:01:36.780Z,56.83
2023-04-10T05:04:26.898Z,56.99
2023-04-10T05:07:15.826Z,57.19
2023-04-10T05:10:15.160Z,57.16
2023-04-10T05:13:03.631Z,57.04
2023-04-10T05:15:56.575Z,56.55
2023-04-10T05:18:45.196Z,56.03
2023-04-10T05:21:24.728Z,55.47
2023-04-10T05:24:06.454Z,55.07
2023-04-10T05:26:53.227Z,54.50
2023-04-10T05:29:43.537Z,54.23
2023-04-10T05:32:39.514Z,53.72
2023-04-10T05:35:31.823Z,53.79
2023-04-10T05:38:17.375Z,53.83
2023-04-10T05:41:11.050Z,53.22
2023-04-10T05:44:03.020Z,52.34
2023-04-10T05:46:51.432Z,51.69
2023-04-10T05:49:29.525Z,51.12
2023-04-10T05:51:59.561Z,50.71
2023-04-10T05:54:51.985Z,50.20
2023-04-10T05:57:36.699Z,49.88
2023-04-10T06:00:24.463Z,49.57
2023-04-10T06:03:12.964Z,49.10
2023-04-10T06:05:52.962Z,48.20
2023-04-10T06:08:23.097Z,48.31
2023-04-10T06:10:53.110Z,47.52
2023-04-10T06:13:24.402Z,47.41
2023-04-10T06:16:01.064Z,47.36
2023-04-10T06:18:32.862Z,46.73
2023-04-10T06:21:03.380Z,45.74
2023-04-10T06:23:33.449Z,44.83
2023-04-10T06:26:04.035Z,43.44
2023-04-10T06:28:34.182Z,43.45
2023-04-10T06:31:10.018Z,43.07
2023-04-10T06:33:42.296Z,41.83
2023-04-10T06:36:13.824Z,41.68
2023-04-10T06:38:50.785Z,41.07
2023-04-10T06:41:21.010Z,40.26
2023-04-10T06:44:02.501Z,39.81
2023-04-10T06:46:36.190Z,38.99
2023-04-10T06:49:10.982Z,38.89
2023-04-10T06:51:45.892Z,38.82
2023-04-10T06:54:20.747Z,38.63
2023-04-10T06:56:51.300Z,39.27
2023-04-10T06:59:22.041Z,38.63
2023-04-10T07:01:54.806Z,38.53
2023-04-10T07:04:25.013Z,38.78
2023-04-10T07:06:55.163Z,37.84
2023-04-10T07:09:26.361Z,38.47
2023-04-10T07:11:56.655Z,38.92
2023-04-10T07:14:26.669Z,38.69
2023-04-10T07:16:59.469Z,38.21
2023-04-10T07:19:29.686Z,37.93
2023-04-10T07:21:59.894Z,37.71
2023-04-10T07:24:30.085Z,37.43
2023-04-10T07:27:01.703Z,36.69
2023-04-10T07:29:32.100Z,35.97
2023-04-10T07:32:05.112Z,35.99
2023-04-10T07:34:35.222Z,36.01
2023-04-10T07:37:05.497Z,35.88
2023-04-10T07:39:35.999Z,35.68
2023-04-10T07:42:06.129Z,36.54
2023-04-10T07:44:36.280Z,35.65
2023-04-10T07:47:09.419Z,34.89
2023-04-10T07:49:39.649Z,34.51
2023-04-10T07:52:10.028Z,34.84
2023-04-10T07:54:40.109Z,34.42
2023-04-10T07:57:10.597Z,35.41
2023-04-10T07:59:41.288Z,35.38
2023-04-10T08:02:14.692Z,35.81
2023-04-10T08:04:45.603Z,34.94
2023-04-10T08:07:15.861Z,34.46
2023-04-10T08:09:45.901Z,34.95
2023-04-10T08:12:17.856Z,33.68
2023-04-10T08:14:48.037Z,33.14
2023-04-10T08:17:20.831Z,33.13
2023-04-10T08:19:51.172Z,32.49
2023-04-10T08:22:21.459Z,32.12
2023-04-10T08:24:51.559Z,32.45
2023-04-10T08:27:21.861Z,33.09
2023-04-10T08:29:57.533Z,33.22
2023-04-10T08:32:31.459Z,33.21
2023-04-10T08:35:02.702Z,33.75
2023-04-10T08:37:35.435Z,32.23
2023-04-10T08:40:05.500Z,31.07
2023-04-10T08:42:35.774Z,30.65
2023-04-10T08:45:06.941Z,31.00
2023-04-10T08:47:43.057Z,31.07
2023-04-10T08:50:16.305Z,31.05
2023-04-10T08:52:49.866Z,29.86
2023-04-10T08:55:20.342Z,28.82
2023-04-10T08:58:00.392Z,27.67
2023-04-10T09:00:34.621Z,28.86
2023-04-10T09:03:08.716Z,28.73
2023-04-10T09:05:39.534Z,27.87
2023-04-10T09:08:11.248Z,27.22
2023-04-10T09:10:41.359Z,28.51
2023-04-10T09:13:11.466Z,27.91
2023-04-10T09:16:00.515Z,28.68
2023-04-10T09:18:50.799Z,28.35
2023-04-10T09:21:22.923Z,26.62
2023-04-10T09:24:03.670Z,26.55
2023-04-10T09:26:35.186Z,27.58
2023-04-10T09:29:06.775Z,27.50
2023-04-10T09:31:38.515Z,26.92
2023-04-10T09:34:16.329Z,25.85
2023-04-10T09:36:47.586Z,25.88
2023-04-10T09:39:17.794Z,25.35
2023-04-10T09:41:53.105Z,25.26
2023-04-10T09:44:33.668Z,24.90
2023-04-10T09:47:20.245Z,24.93
2023-04-10T09:49:55.232Z,25.20
2023-04-10T09:52:25.838Z,26.79
2023-04-10T09:54:56.710Z,26.42
2023-04-10T09:57:29.134Z,25.65
2023-04-10T10:00:00.509Z,25.07
2023-04-10T10:02:32.712Z,24.97
2023-04-10T10:05:07.612Z,24.26
2023-04-10T10:07:38.705Z,23.33
2023-04-10T10:10:10.988Z,23.21
2023-04-10T10:12:52.740Z,22.86
2023-04-10T10:15:32.778Z,23.38
2023-04-10T10:18:10.669Z,23.48
2023-04-10T10:20:47.416Z,22.75
2023-04-10T10:23:19.279Z,22.77
2023-04-10T10:25:51.773Z,22.44
2023-04-10T10:28:23.019Z,22.53
2023-04-10T10:30:53.818Z,22.44
2023-04-10T10:33:24.071Z,21.39
2023-04-10T10:35:57.960Z,21.10
2023-04-10T10:38:28.450Z,20.92
2023-04-10T10:41:05.638Z,20.71
2023-04-10T10:43:42.522Z,19.49
2023-04-10T10:46:16.077Z,20.08
2023-04-10T10:48:59.373Z,19.61
2023-04-10T10:51:48.894Z,20.16
2023-04-10T10:54:33.699Z,19.54
2023-04-10T10:57:06.618Z,19.20
2023-04-10T10:59:58.267Z,19.60
2023-04-10T11:02:28.400Z,19.29
2023-04-10T11:04:58.714Z,19.38
2023-04-10T11:08:10.760Z,19.08
2023-04-10T11:11:06.140Z,18.70
2023-04-10T11:13:37.340Z,19.24
2023-04-10T11:16:10.736Z,19.29
2023-04-10T11:19:14.916Z,20.11
2023-04-10T11:22:05.402Z,20.00
2023-04-10T11:24:57.762Z,19.74
2023-04-10T11:27:53.098Z,19.52
2023-04-10T11:30:37.162Z,20.26
2023-04-10T11:33:09.001Z,20.09
2023-04-10T11:35:39.290Z,20.12
2023-04-10T11:38:16.805Z,19.90
2023-04-10T11:41:06.986Z,19.07
2023-04-10T11:43:40.830Z,18.20
2023-04-10T11:46:11.221Z,17.27
2023-04-10T11:48:41.433Z,17.48
2023-04-10T11:51:13.306Z,18.45
2023-04-10T11:53:44.193Z,17.45
2023-04-10T11:56:25.546Z,17.42
2023-04-10T11:58:58.226Z,17.79
2023-04-10T12:01:28.362Z,17.85
2023-04-10T12:03:58.701Z,17.55
2023-04-10T12:06:29.386Z,18.16
2023-04-10T12:08:59.608Z,17.94
2023-04-10T12:11:30.126Z,18.03
2023-04-10T12:14:03.544Z,17.46
2023-04-10T12:16:36.302Z,17.29
2023-04-10T12:19:06.536Z,16.43
2023-04-10T12:21:39.090Z,16.59
2023-04-10T12:24:09.363Z,16.29
2023-04-10T12:26:39.601Z,17.00
2023-04-10T12:29:12.284Z,17.43
2023-04-10T12:31:42.718Z,16.01
2023-04-10T12:34:13.536Z,16.57
2023-04-10T12:36:55.675Z,18.06
2023-04-10T12:39:27.536Z,19.41
2023-04-10T12:42:14.342Z,20.01
2023-04-10T12:44:57.585Z,20.06
2023-04-10T12:47:29.620Z,20.66
2023-04-10T12:50:11.009Z,21.87
2023-04-10T12:52:43.039Z,21.69
2023-04-10T12:55:18.019Z,20.14
2023-04-10T12:57:49.651Z,20.48
2023-04-10T13:00:23.243Z,21.58
2023-04-10T13:02:53.633Z,20.79
2023-04-10T13:05:25.349Z,20.33
2023-04-10T13:07:55.587Z,19.62
2023-04-10T13:10:25.723Z,20.70
2023-04-10T13:12:56.273Z,21.01
2023-04-10T13:15:29.300Z,19.81
2023-04-10T13:17:59.401Z,19.53
2023-04-10T13:20:30.151Z,18.83
2023-04-10T13:23:00.227Z,17.92
2023-04-10T13:25:30.419Z,18.12
2023-04-10T13:28:00.687Z,17.50
2023-04-10T13:30:33.362Z,16.53
2023-04-10T13:33:03.986Z,17.04
2023-04-10T13:35:34.153Z,17.71
2023-04-10T13:38:04.731Z,18.63
2023-04-10T13:40:34.969Z,19.36
2023-04-10T13:43:06.607Z,19.42
2023-04-10T13:45:39.278Z,21.44
2023-04-10T13:48:09.997Z,21.32
2023-04-10T13:50:40.267Z,20.70
2023-04-10T13:53:13.698Z,22.81
2023-04-10T13:55:44.032Z,21.44
2023-04-10T13:58:15.043Z,19.76
2023-04-10T14:00:48.629Z,19.36
2023-04-10T14:03:19.006Z,18.88
2023-04-10T14:05:50.739Z,18.51
2023-04-10T14:08:20.955Z,18.67
2023-04-10T14:10:52.880Z,18.63
2023-04-10T14:13:26.368Z,20.00
2023-04-10T14:15:59.043Z,19.95
2023-04-10T14:18:29.668Z,21.14
2023-04-10T14:20:59.843Z,21.75
2023-04-10T14:23:29.968Z,23.25
2023-04-10T14:26:00.619Z,25.89
2023-04-10T14:28:31.746Z,28.16
2023-04-10T14:31:04.720Z,29.03
2023-04-10T14:33:35.306Z,29.80
2023-04-10T14:36:05.842Z,30.31
2023-04-10T14:38:36.988Z,31.49
2023-04-10T14:41:07.549Z,33.08
2023-04-10T14:43:37.663Z,33.46
2023-04-10T14:46:11.261Z,32.87
2023-04-10T14:48:44.250Z,33.17
2023-04-10T14:51:15.752Z,33.49
2023-04-10T14:53:48.871Z,34.08
2023-04-10T14:56:29.816Z,34.21
2023-04-10T14:59:01.352Z,33.74
2023-04-10T15:01:34.198Z,33.91
2023-04-10T15:04:04.851Z,34.08
2023-04-10T15:06:39.127Z,33.72
2023-04-10T15:09:09.846Z,34.32
2023-04-10T15:11:40.226Z,34.76
2023-04-10T15:14:12.470Z,34.36
2023-04-10T15:16:45.547Z,34.85
2023-04-10T15:19:18.624Z,34.61
2023-04-10T15:21:48.859Z,34.38
2023-04-10T15:24:19.105Z,34.02
2023-04-10T15:26:49.687Z,33.47
2023-04-10T15:29:19.878Z,33.60
2023-04-10T15:31:52.868Z,33.68
2023-04-10T15:34:23.252Z,33.74
2023-04-10T15:36:53.657Z,33.87
2023-04-10T15:39:23.818Z,33.90
2023-04-10T15:41:54.091Z,34.00
2023-04-10T15:44:24.540Z,33.69
2023-04-10T15:46:57.341Z,33.91
2023-04-10T15:49:36.921Z,34.07
2023-04-10T15:52:08.871Z,33.73
2023-04-10T15:54:39.278Z,33.58
2023-04-10T15:57:31.729Z,33.27
2023-04-10T16:00:03.439Z,33.19
2023-04-10T16:02:37.553Z,32.87
2023-04-10T16:05:09.816Z,32.18
2023-04-10T16:07:42.212Z,32.71
2023-04-10T16:10:13.131Z,32.82
2023-04-10T16:12:44.629Z,33.16
2023-04-10T16:15:15.503Z,33.18
2023-04-10T16:17:48.224Z,33.03
2023-04-10T16:20:19.060Z,32.87
2023-04-10T16:22:49.260Z,32.99
2023-04-10T16:25:21.563Z,32.82
2023-04-10T16:27:53.210Z,33.12
2023-04-10T16:30:23.386Z,32.72
2023-04-10T16:32:56.674Z,33.27
2023-04-10T16:35:26.938Z,33.17
2023-04-10T16:37:57.281Z,33.27
2023-04-10T16:40:33.114Z,33.62
2023-04-10T16:43:03.394Z,33.36
2023-04-10T16:45:33.686Z,33.56
2023-04-10T16:48:06.490Z,33.56
2023-04-10T16:50:37.751Z,33.15
2023-04-10T16:53:07.893Z,33.44
2023-04-10T16:55:40.946Z,33.54
2023-04-10T16:58:10.986Z,33.41
2023-04-10T17:00:41.172Z,33.80
2023-04-10T17:03:18.640Z,33.65
2023-04-10T17:05:49.576Z,33.64
2023-04-10T17:08:19.988Z,33.45
2023-04-10T17:10:50.169Z,33.51
2023-04-10T17:13:20.379Z,33.49
2023-04-10T17:15:50.435Z,33.39
2023-04-10T17:18:23.103Z,33.58
2023-04-10T17:20:53.271Z,33.59
2023-04-10T17:23:23.581Z,33.88
2023-04-10T17:25:53.700Z,33.75
2023-04-10T17:28:24.027Z,33.77
2023-04-10T17:30:54.371Z,33.98
2023-04-10T17:33:27.155Z,34.13
2023-04-10T17:35:57.433Z,34.14
2023-04-10T17:38:27.632Z,34.46
2023-04-10T17:40:57.806Z,34.69
2023-04-10T17:43:31.036Z,34.96
2023-04-10T17:46:02.969Z,34.93
2023-04-10T17:48:36.209Z,35.10
2023-04-10T17:51:08.386Z,35.41
2023-04-10T17:53:39.310Z,35.66
2023-04-10T17:56:10.863Z,35.84
2023-04-10T17:58:53.109Z,36.02
2023-04-10T18:01:29.787Z,36.11
2023-04-10T18:04:03.324Z,36.21
2023-04-10T18:06:33.642Z,36.37
2023-04-10T18:09:04.222Z,36.57
2023-04-10T18:11:34.373Z,36.56
2023-04-10T18:14:04.403Z,36.90
2023-04-10T18:16:34.551Z,36.85
2023-04-10T18:19:07.414Z,37.14
2023-04-10T18:21:37.534Z,37.06
2023-04-10T18:24:08.273Z,37.20
2023-04-10T18:26:38.390Z,37.42
2023-04-10T18:29:08.824Z,37.59
2023-04-10T18:31:39.062Z,37.71
2023-04-10T18:34:12.020Z,37.67
2023-04-10T18:36:42.156Z,37.46
2023-04-10T18:39:12.854Z,37.85
2023-04-10T18:41:43.489Z,37.69
2023-04-10T18:44:13.720Z,37.79
2023-04-10T18:46:48.418Z,37.62
2023-04-10T18:49:23.825Z,37.58
2023-04-10T18:51:54.143Z,37.63
2023-04-10T18:54:27.099Z,37.74
2023-04-10T18:56:57.283Z,37.80
2023-04-10T18:59:27.430Z,37.80
2023-04-10T19:01:57.745Z,37.83
2023-04-10T19:04:30.551Z,38.06
2023-04-10T19:07:01.976Z,37.83
2023-04-10T19:09:32.036Z,38.01
2023-04-10T19:12:02.553Z,37.95
2023-04-10T19:14:32.754Z,37.98
2023-04-10T19:17:06.151Z,38.21
2023-04-10T19:19:41.974Z,38.08
2023-04-10T19:22:11.994Z,38.31
2023-04-10T19:24:42.314Z,38.61
2023-04-10T19:27:15.149Z,38.69
2023-04-10T19:29:47.641Z,38.69
2023-04-10T19:32:20.488Z,38.64
2023-04-10T19:34:54.169Z,38.62
2023-04-10T19:37:24.399Z,38.95
2023-04-10T19:39:54.438Z,38.98
2023-04-10T19:42:24.497Z,39.18
2023-04-10T19:44:54.782Z,39.35
2023-04-10T19:47:25.029Z,39.56
2023-04-10T19:49:57.944Z,39.56
2023-04-10T19:52:29.439Z,39.54
2023-04-10T19:54:59.532Z,39.50
2023-04-10T19:57:29.843Z,39.56
2023-04-10T20:00:00.094Z,39.46
2023-04-10T20:02:30.504Z,39.59
2023-04-10T20:05:03.628Z,39.64
2023-04-10T20:07:33.874Z,39.40
2023-04-10T20:10:04.310Z,39.38
2023-04-10T20:12:36.206Z,39.28
2023-04-10T20:15:08.978Z,39.56
2023-04-10T20:17:39.261Z,39.55
2023-04-10T20:20:13.327Z,39.49
2023-04-10T20:22:43.398Z,39.50
2023-04-10T20:25:13.555Z,39.23
2023-04-10T20:27:43.698Z,39.22
2023-04-10T20:30:14.551Z,39.18
2023-04-10T20:32:44.705Z,39.07
2023-04-10T20:35:17.383Z,38.65
2023-04-10T20:37:47.418Z,38.69
2023-04-10T20:40:17.599Z,38.57
2023-04-10T20:42:47.781Z,38.56
2023-04-10T20:45:18.283Z,38.43
2023-04-10T20:47:48.695Z,38.27
2023-04-10T20:50:21.659Z,38.06
2023-04-10T20:52:53.755Z,37.85
2023-04-10T20:55:24.022Z,37.72
2023-04-10T20:57:54.342Z,38.07
2023-04-10T21:00:24.984Z,37.89
2023-04-10T21:02:55.277Z,37.77
2023-04-10T21:05:28.516Z,37.89
2023-04-10T21:07:59.145Z,37.81
2023-04-10T21:10:29.234Z,37.73
2023-04-10T21:12:59.405Z,37.84
2023-04-10T21:15:29.516Z,37.57
2023-04-10T21:18:00.190Z,37.57
2023-04-10T21:20:33.988Z,37.49
2023-04-10T21:23:07.350Z,37.46
2023-04-10T21:25:40.645Z,37.24
2023-04-10T21:28:10.851Z,37.26
2023-04-10T21:30:40.978Z,37.30
2023-04-10T21:33:11.122Z,37.15
2023-04-10T21:35:45.649Z,37.26
2023-04-10T21:38:15.781Z,37.31
2023-04-10T21:40:52.785Z,37.22
2023-04-10T21:43:23.274Z,37.21
2023-04-10T21:45:53.421Z,37.15
2023-04-10T21:48:23.623Z,37.03
2023-04-10T21:50:56.328Z,37.33
2023-04-10T21:53:26.475Z,37.07
2023-04-10T21:55:56.461Z,37.25
2023-04-10T21:58:26.573Z,37.26
2023-04-10T22:00:56.736Z,37.24
2023-04-10T22:03:27.513Z,37.39
2023-04-10T22:06:00.307Z,37.55
2023-04-10T22:08:30.658Z,37.27
2023-04-10T22:11:00.858Z,37.38
2023-04-10T22:13:31.416Z,37.73
2023-04-10T22:16:02.185Z,37.68
2023-04-10T22:18:32.602Z,37.63
2023-04-10T22:21:08.118Z,37.56
2023-04-10T22:23:38.214Z,37.89
2023-04-10T22:26:08.911Z,37.88
2023-04-10T22:28:39.050Z,38.04
2023-04-10T22:31:09.553Z,37.96
2023-04-10T22:33:40.180Z,37.97
2023-04-10T22:36:14.260Z,38.23
2023-04-10T22:38:44.406Z,38.36
2023-04-10T22:41:14.468Z,38.29
2023-04-10T22:43:44.552Z,38.27
2023-04-10T22:46:14.572Z,38.63
2023-04-10T22:48:46.375Z,38.64
2023-04-10T22:51:20.013Z,38.58
2023-04-10T22:53:50.130Z,38.42
2023-04-10T22:56:23.441Z,38.77
2023-04-10T22:58:53.990Z,39.04
2023-04-10T23:01:24.270Z,38.89
2023-04-10T23:03:54.964Z,38.98
2023-04-10T23:06:27.643Z,38.97
2023-04-10T23:08:58.039Z,38.79
2023-04-10T23:11:28.286Z,39.12
2023-04-10T23:13:58.306Z,39.09
2023-04-10T23:16:28.498Z,39.06
2023-04-10T23:18:58.838Z,39.04
2023-04-10T23:21:31.719Z,39.18
2023-04-10T23:24:01.786Z,39.07
2023-04-10T23:26:36.253Z,39.02
2023-04-10T23:29:06.336Z,39.39
2023-04-10T23:31:36.435Z,39.56
2023-04-10T23:34:06.851Z,39.41
2023-04-10T23:36:39.474Z,39.35
2023-04-10T23:39:09.592Z,39.22
2023-04-10T23:41:39.689Z,39.31
2023-04-10T23:44:09.708Z,39.27
2023-04-10T23:46:39.895Z,39.26
2023-04-10T23:49:10.060Z,39.48
2023-04-10T23:51:42.700Z,39.31
2023-04-10T23:54:12.765Z,39.33
2023-04-10T23:56:43.713Z,39.75
2023-04-10T23:59:17.071Z,39.82
